Time;durP1;ratioP1;P1;durP2;ratioP2;P2;SDS_P1;SDS_P2;PMS_P1;PMS_P2;Temp;Humidity;BMP_temperature;BMP_pressure;BME280_temperature;BME280_humidity;BME280_pressure;Samples;Min_cycle;Max_cycle;Signal;HPM_P1;HPM_P2
2022/03/14 00:02:09;;;;;;;19.38;14.85;;;11.80;92.90;;;;;;5030156;28;20136;-67
2022/03/14 00:04:37;;;;;;;22.17;14.07;;;11.80;93.40;;;;;;5042694;28;20083;-66
2022/03/14 00:07:04;;;;;;;16.25;12.95;;;11.80;93.60;;;;;;5034642;28;20077;-67
2022/03/14 00:09:30;;;;;;;15.20;12.15;;;11.60;94.00;;;;;;5028747;28;20053;-66
2022/03/14 00:11:57;;;;;;;17.98;13.55;;;11.60;94.20;;;;;;5027497;28;20045;-67
2022/03/14 00:14:24;;;;;;;14.30;11.13;;;11.60;94.60;;;;;;5029990;28;20076;-67
2022/03/14 00:16:50;;;;;;;12.77;10.85;;;11.70;94.70;;;;;;5035794;28;20046;-66
2022/03/14 00:19:16;;;;;;;15.48;11.18;;;11.60;95.00;;;;;;5042655;28;20829;-67
2022/03/14 00:21:41;;;;;;;13.27;10.63;;;11.60;95.40;;;;;;5041701;28;20053;-66
2022/03/14 00:24:11;;;;;;;14.48;11.27;;;11.50;96.20;;;;;;5028503;28;20480;-66
2022/03/14 00:26:37;;;;;;;14.02;9.73;;;11.50;96.80;;;;;;5029906;28;20057;-66
2022/03/14 00:29:03;;;;;;;9.70;8.05;;;11.40;97.20;;;;;;5030054;28;20033;-66
2022/03/14 00:31:29;;;;;;;9.57;8.07;;;11.40;97.70;;;;;;5028335;28;20045;-67
2022/03/14 00:33:55;;;;;;;9.48;7.97;;;11.40;98.20;;;;;;5029497;28;20485;-66
2022/03/14 00:36:21;;;;;;;8.32;6.68;;;11.30;98.80;;;;;;5044245;28;20047;-66
2022/03/14 00:38:46;;;;;;;9.18;6.93;;;11.30;98.90;;;;;;5034783;28;20381;-66
2022/03/14 00:41:16;;;;;;;8.35;5.47;;;11.30;99.20;;;;;;5028143;28;20041;-67
2022/03/14 00:43:42;;;;;;;9.85;5.40;;;11.40;99.60;;;;;;5049000;28;20041;-66
2022/03/14 00:46:07;;;;;;;7.65;5.95;;;11.30;99.90;;;;;;5035033;28;20132;-67
2022/03/14 00:48:34;;;;;;;7.65;5.65;;;11.30;99.90;;;;;;5029352;28;20049;-66
2022/03/14 00:51:00;;;;;;;6.88;4.80;;;11.30;99.90;;;;;;5038239;28;20083;-67
2022/03/14 00:53:27;;;;;;;6.45;5.47;;;11.30;99.90;;;;;;5027564;28;20045;-66
2022/03/14 00:55:52;;;;;;;6.47;5.43;;;11.30;99.90;;;;;;5028321;28;20045;-66
2022/03/14 00:58:18;;;;;;;5.45;4.85;;;11.30;99.90;;;;;;5042262;28;20397;-66
2022/03/14 01:00:44;;;;;;;5.38;4.40;;;11.40;99.90;;;;;;5041903;28;20051;-66
2022/03/14 01:03:09;;;;;;;5.32;4.72;;;11.30;99.90;;;;;;5047494;28;20041;-66
2022/03/14 01:05:35;;;;;;;8.68;5.40;;;11.30;99.90;;;;;;5031116;28;20486;-66
2022/03/14 01:08:01;;;;;;;5.78;4.65;;;11.40;99.90;;;;;;5027759;28;20041;-66
2022/03/14 01:10:28;;;;;;;6.50;5.00;;;11.30;99.90;;;;;;5031447;28;20530;-66
2022/03/14 01:12:54;;;;;;;4.97;4.30;;;11.20;99.90;;;;;;5027939;28;20175;-66
2022/03/14 01:15:19;;;;;;;6.40;4.82;;;11.30;99.90;;;;;;5027672;28;20116;-66
2022/03/14 01:17:45;;;;;;;5.32;4.70;;;11.20;99.90;;;;;;5029062;28;20049;-66
2022/03/14 01:20:11;;;;;;;5.10;4.30;;;11.20;99.90;;;;;;5027941;28;20049;-66
2022/03/14 01:22:38;;;;;;;5.47;4.43;;;11.20;99.90;;;;;;5042766;28;20473;-66
2022/03/14 01:25:04;;;;;;;7.40;4.60;;;11.20;99.90;;;;;;5035122;28;20045;-66
2022/03/14 01:27:30;;;;;;;5.55;4.85;;;11.10;99.90;;;;;;5031845;28;20182;-67
2022/03/14 01:29:55;;;;;;;5.55;4.22;;;11.10;99.90;;;;;;5031537;28;20135;-66
2022/03/14 01:32:21;;;;;;;5.78;5.07;;;11.20;99.90;;;;;;5029754;28;20049;-66
2022/03/14 01:34:47;;;;;;;5.63;4.45;;;11.20;99.90;;;;;;5028272;28;20049;-67
2022/03/14 01:37:12;;;;;;;7.95;4.97;;;11.10;99.90;;;;;;5042085;28;20435;-66
2022/03/14 01:39:38;;;;;;;7.10;4.97;;;11.10;99.90;;;;;;5047785;28;20064;-66
2022/03/14 01:42:04;;;;;;;4.85;4.20;;;11.10;99.90;;;;;;5027053;28;20045;-67
2022/03/14 01:44:30;;;;;;;5.18;4.20;;;11.10;99.90;;;;;;5040491;28;20072;-66
2022/03/14 01:46:56;;;;;;;5.45;4.50;;;11.20;99.90;;;;;;5048524;28;20460;-66
2022/03/14 01:49:22;;;;;;;4.43;3.97;;;11.20;99.90;;;;;;5047210;28;20043;-66
2022/03/14 01:51:54;;;;;;;6.50;4.07;;;11.20;99.90;;;;;;5028891;28;20057;-67
2022/03/14 01:54:19;;;;;;;5.57;4.70;;;11.10;99.90;;;;;;5029479;28;20437;-66
2022/03/14 01:56:47;;;;;;;5.10;4.50;;;11.10;99.90;;;;;;5042878;28;20037;-66
2022/03/14 01:59:13;;;;;;;6.97;4.28;;;11.00;99.90;;;;;;5028263;28;20108;-66
2022/03/14 02:01:38;;;;;;;6.93;4.97;;;11.00;99.90;;;;;;5027862;28;20042;-66
2022/03/14 02:04:05;;;;;;;5.53;4.85;;;11.00;99.90;;;;;;5034368;28;20605;-66
2022/03/14 02:06:32;;;;;;;5.90;5.30;;;11.00;99.90;;;;;;5044846;28;20562;-67
2022/03/14 02:08:57;;;;;;;7.95;5.22;;;11.10;99.90;;;;;;5039871;28;20047;-66
2022/03/14 02:11:24;;;;;;;7.07;5.78;;;11.00;99.90;;;;;;5029957;28;20452;-66
2022/03/14 02:13:49;;;;;;;5.43;4.60;;;11.00;99.90;;;;;;5028226;28;20045;-66
2022/03/14 02:16:15;;;;;;;7.32;5.55;;;11.00;99.90;;;;;;5046420;28;20068;-66
2022/03/14 02:18:40;;;;;;;7.30;5.18;;;11.00;99.90;;;;;;5027528;28;20045;-67
2022/03/14 02:21:08;;;;;;;6.57;5.70;;;11.00;99.90;;;;;;5026973;28;20041;-66
2022/03/14 02:23:34;;;;;;;7.70;5.38;;;11.00;99.90;;;;;;5045713;28;20051;-66
2022/03/14 02:25:59;;;;;;;6.95;5.32;;;10.90;99.90;;;;;;5050320;28;20143;-67
2022/03/14 02:28:26;;;;;;;6.85;6.03;;;11.00;99.90;;;;;;5051024;28;20052;-66
2022/03/14 02:30:52;;;;;;;7.68;5.40;;;11.00;99.90;;;;;;5050889;28;20048;-66
2022/03/14 02:33:18;;;;;;;6.40;5.00;;;10.90;99.90;;;;;;5041980;28;20402;-66
2022/03/14 02:35:44;;;;;;;7.70;4.82;;;10.90;99.90;;;;;;5034638;28;20115;-66
2022/03/14 02:38:16;;;;;;;5.85;4.95;;;10.90;99.90;;;;;;5030464;28;20497;-66
2022/03/14 02:40:46;;;;;;;8.73;6.50;;;10.90;99.90;;;;;;5029566;28;20056;-66
2022/03/14 02:43:16;;;;;;;7.95;5.82;;;10.90;99.90;;;;;;5050894;28;20060;-66
2022/03/14 02:45:46;;;;;;;13.27;8.30;;;10.90;99.90;;;;;;5050833;28;20048;-66
2022/03/14 02:48:12;;;;;;;17.45;9.73;;;10.80;99.90;;;;;;5032256;28;20073;-66
2022/03/14 02:50:41;;;;;;;14.90;10.07;;;10.80;99.90;;;;;;5037049;28;20080;-66
2022/03/14 02:53:08;;;;;;;16.65;12.30;;;10.80;99.90;;;;;;5036937;28;20053;-66
2022/03/14 02:55:33;;;;;;;16.83;13.10;;;10.80;99.90;;;;;;5045481;28;20162;-66
2022/03/14 02:57:59;;;;;;;15.70;12.30;;;10.80;99.90;;;;;;5051736;28;20727;-66
2022/03/14 03:00:24;;;;;;;17.25;13.18;;;10.80;99.90;;;;;;5038362;28;20535;-66
2022/03/14 03:02:50;;;;;;;15.25;12.50;;;10.80;99.90;;;;;;5031629;28;20056;-66
2022/03/14 03:05:16;;;;;;;18.23;12.82;;;10.80;99.90;;;;;;5040967;28;20146;-66
2022/03/14 03:07:42;;;;;;;16.50;13.43;;;10.70;99.90;;;;;;5038300;28;20045;-66
2022/03/14 03:10:09;;;;;;;17.20;13.60;;;10.80;99.90;;;;;;5028963;28;20046;-66
2022/03/14 03:12:35;;;;;;;18.60;14.73;;;10.80;99.90;;;;;;5031799;28;20048;-66
2022/03/14 03:15:02;;;;;;;19.42;15.38;;;10.70;99.90;;;;;;5030088;28;20120;-66
2022/03/14 03:17:27;;;;;;;20.45;15.85;;;10.70;99.90;;;;;;5040911;28;20045;-66
2022/03/14 03:19:53;;;;;;;18.88;15.48;;;10.70;99.90;;;;;;5049882;28;20047;-66
2022/03/14 03:22:18;;;;;;;20.15;15.07;;;10.70;99.90;;;;;;5046659;28;20238;-66
2022/03/14 03:24:44;;;;;;;21.20;15.85;;;10.70;99.90;;;;;;5030745;28;20045;-66
2022/03/14 03:27:09;;;;;;;19.27;14.93;;;10.70;99.90;;;;;;5029872;28;20049;-66
2022/03/14 03:29:35;;;;;;;18.80;14.35;;;10.70;99.90;;;;;;5041315;28;20091;-66
2022/03/14 03:32:01;;;;;;;20.23;14.75;;;10.70;99.90;;;;;;5030948;28;20038;-66
2022/03/14 03:34:26;;;;;;;16.17;12.25;;;10.70;99.90;;;;;;5028629;28;20421;-66
2022/03/14 03:36:52;;;;;;;14.57;12.30;;;10.70;99.90;;;;;;5036435;28;20049;-66
2022/03/14 03:39:17;;;;;;;15.18;12.55;;;10.70;99.90;;;;;;5029586;28;20059;-66
2022/03/14 03:41:43;;;;;;;15.57;12.20;;;10.80;99.90;;;;;;5030058;28;20048;-66
2022/03/14 03:44:09;;;;;;;16.20;13.88;;;10.80;99.90;;;;;;5040342;28;20044;-66
2022/03/14 03:46:34;;;;;;;17.02;12.48;;;10.80;99.90;;;;;;5050507;28;20048;-66
2022/03/14 03:49:00;;;;;;;15.07;12.25;;;10.80;99.90;;;;;;5030223;28;20045;-66
2022/03/14 03:51:25;;;;;;;14.27;10.75;;;10.80;99.90;;;;;;5048250;28;20126;-66
2022/03/14 03:53:51;;;;;;;11.70;10.00;;;10.80;99.90;;;;;;5050752;28;20094;-66
2022/03/14 03:56:16;;;;;;;12.25;10.23;;;10.80;99.90;;;;;;5046163;28;20057;-66
2022/03/14 03:58:42;;;;;;;12.95;10.65;;;10.80;99.90;;;;;;5050353;28;20033;-66
2022/03/14 04:01:08;;;;;;;13.68;11.02;;;10.80;99.90;;;;;;5034065;28;20041;-66
2022/03/14 04:03:34;;;;;;;10.02;8.93;;;10.80;99.90;;;;;;5037112;28;20037;-66
2022/03/14 04:06:00;;;;;;;11.82;9.80;;;10.80;99.90;;;;;;5049748;28;20393;-66
2022/03/14 04:08:29;;;;;;;11.90;9.13;;;10.80;99.90;;;;;;5049849;28;20258;-66
2022/03/14 04:10:56;;;;;;;10.38;8.18;;;10.80;99.90;;;;;;5030182;28;20134;-66
2022/03/14 04:13:24;;;;;;;9.45;7.93;;;10.80;99.90;;;;;;5034631;28;20045;-66
2022/03/14 04:15:54;;;;;;;9.82;8.18;;;10.70;99.90;;;;;;5036710;28;20056;-66
2022/03/14 04:18:21;;;;;;;10.77;8.18;;;10.60;99.90;;;;;;5029094;28;20050;-66
2022/03/14 04:20:47;;;;;;;9.20;7.80;;;10.60;99.90;;;;;;5031612;28;20042;-66
2022/03/14 04:23:13;;;;;;;9.43;7.38;;;10.60;99.90;;;;;;5027710;28;20053;-66
2022/03/14 04:25:39;;;;;;;8.05;6.53;;;10.60;99.90;;;;;;5029084;28;20049;-66
2022/03/14 04:28:05;;;;;;;8.48;6.70;;;10.60;99.90;;;;;;5032655;28;20071;-66
2022/03/14 04:30:31;;;;;;;7.85;5.70;;;10.60;99.90;;;;;;5047911;28;20116;-66
2022/03/14 04:32:56;;;;;;;7.25;6.30;;;10.70;99.90;;;;;;5049364;28;20037;-66
2022/03/14 04:35:22;;;;;;;7.10;6.30;;;10.70;99.90;;;;;;5042956;28;20088;-66
2022/03/14 04:37:47;;;;;;;6.47;5.10;;;10.80;99.90;;;;;;5027969;28;20087;-67
2022/03/14 04:40:14;;;;;;;7.18;5.57;;;10.80;99.90;;;;;;5040165;28;20079;-66
2022/03/14 04:42:40;;;;;;;7.13;5.75;;;10.80;99.90;;;;;;5049425;28;20543;-66
2022/03/14 04:45:06;;;;;;;6.70;5.43;;;10.90;99.90;;;;;;5042756;28;20049;-66
2022/03/14 04:47:32;;;;;;;13.63;5.85;;;10.80;99.90;;;;;;5048742;28;20548;-66
2022/03/14 04:49:58;;;;;;;7.35;5.78;;;10.80;99.90;;;;;;5049034;28;20048;-66
2022/03/14 04:52:24;;;;;;;5.63;4.93;;;10.70;99.90;;;;;;5047495;28;20520;-66
2022/03/14 04:54:50;;;;;;;5.50;4.53;;;10.70;99.90;;;;;;5039294;28;20053;-66
2022/03/14 04:57:15;;;;;;;6.60;5.55;;;10.80;99.90;;;;;;5033233;28;20080;-66
2022/03/14 04:59:41;;;;;;;4.95;4.45;;;10.70;99.90;;;;;;5027840;28;20052;-66
2022/03/14 05:02:06;;;;;;;5.45;4.90;;;10.70;99.90;;;;;;5043425;28;20071;-66
2022/03/14 05:04:33;;;;;;;6.32;5.53;;;10.70;99.90;;;;;;5039991;28;20451;-67
2022/03/14 05:06:59;;;;;;;5.05;4.25;;;10.70;99.90;;;;;;5033873;28;20056;-66
2022/03/14 05:09:25;;;;;;;5.45;4.32;;;10.70;99.90;;;;;;5028853;28;20050;-66
2022/03/14 05:11:51;;;;;;;4.55;3.58;;;10.60;99.90;;;;;;5040572;28;20079;-66
2022/03/14 05:14:17;;;;;;;5.78;3.90;;;10.70;99.90;;;;;;5046279;28;20076;-66
2022/03/14 05:16:43;;;;;;;3.72;3.33;;;10.70;99.90;;;;;;5029382;28;20046;-66
2022/03/14 05:19:08;;;;;;;6.38;3.55;;;10.60;99.90;;;;;;5042536;28;20044;-66
2022/03/14 05:21:34;;;;;;;4.88;3.63;;;10.60;99.90;;;;;;5046916;28;20392;-66
2022/03/14 05:24:00;;;;;;;3.92;3.53;;;10.60;99.90;;;;;;5048976;28;20080;-66
2022/03/14 05:26:25;;;;;;;4.53;3.70;;;10.60;99.90;;;;;;5047805;28;20273;-66
2022/03/14 05:28:51;;;;;;;6.18;3.65;;;10.50;99.90;;;;;;5046808;28;20037;-66
2022/03/14 05:31:17;;;;;;;3.80;3.30;;;10.50;99.90;;;;;;5047869;28;20048;-66
2022/03/14 05:33:42;;;;;;;6.10;2.58;;;10.50;99.90;;;;;;5044240;28;20040;-66
2022/03/14 05:36:08;;;;;;;4.47;3.38;;;10.50;99.90;;;;;;5041708;28;20130;-66
2022/03/14 05:38:34;;;;;;;3.40;3.10;;;10.50;99.90;;;;;;5042885;28;20033;-66
2022/03/14 05:40:59;;;;;;;5.68;2.75;;;10.40;99.90;;;;;;5031537;28;20060;-66
2022/03/14 05:43:26;;;;;;;4.40;3.50;;;10.50;99.90;;;;;;5027962;28;20557;-66
2022/03/14 05:45:52;;;;;;;3.58;3.25;;;10.50;99.90;;;;;;5028041;28;20083;-66
2022/03/14 05:48:18;;;;;;;3.95;3.38;;;10.50;99.90;;;;;;5027173;28;20049;-66
2022/03/14 05:50:43;;;;;;;3.30;3.00;;;10.50;99.90;;;;;;5035098;28;20051;-66
2022/03/14 05:53:11;;;;;;;4.05;3.55;;;10.40;99.90;;;;;;5047840;28;20053;-66
2022/03/14 05:55:36;;;;;;;3.28;2.83;;;10.40;99.90;;;;;;5044357;28;20103;-66
2022/03/14 05:58:03;;;;;;;3.45;2.72;;;10.50;99.90;;;;;;5047931;28;20037;-66
2022/03/14 06:00:30;;;;;;;3.17;2.85;;;10.50;99.90;;;;;;5050726;28;20037;-66
2022/03/14 06:02:56;;;;;;;3.63;3.22;;;10.50;99.90;;;;;;5034255;28;20052;-66
2022/03/14 06:05:22;;;;;;;7.05;3.72;;;10.50;99.90;;;;;;5049896;28;20095;-66
2022/03/14 06:07:48;;;;;;;6.28;3.00;;;10.40;99.90;;;;;;5051635;28;20071;-66
2022/03/14 06:10:15;;;;;;;3.83;2.85;;;10.40;99.90;;;;;;5040854;28;20033;-66
2022/03/14 06:12:42;;;;;;;3.95;3.53;;;10.40;99.90;;;;;;5032253;28;20478;-66
2022/03/14 06:15:14;;;;;;;4.63;3.65;;;10.40;99.90;;;;;;5030862;28;20452;-66
2022/03/14 06:17:41;;;;;;;3.47;3.05;;;10.40;99.90;;;;;;5031857;28;20229;-66
2022/03/14 06:20:11;;;;;;;5.55;3.95;;;10.50;99.90;;;;;;5038875;28;20083;-66
2022/03/14 06:22:41;;;;;;;3.88;3.22;;;10.50;99.90;;;;;;5031494;28;20072;-66
2022/03/14 06:25:08;;;;;;;4.97;2.95;;;10.50;99.90;;;;;;5038628;28;20050;-67
2022/03/14 06:27:34;;;;;;;3.53;2.95;;;10.50;99.90;;;;;;5032131;28;20113;-67
2022/03/14 06:29:59;;;;;;;4.80;3.40;;;10.50;99.90;;;;;;5031438;28;20081;-66
2022/03/14 06:32:25;;;;;;;4.20;3.10;;;10.50;99.90;;;;;;5037689;28;20528;-66
2022/03/14 06:34:50;;;;;;;4.22;3.50;;;10.50;99.90;;;;;;5050455;28;20037;-66
2022/03/14 06:37:16;;;;;;;4.13;3.70;;;10.50;99.90;;;;;;5049337;28;20044;-66
2022/03/14 06:39:42;;;;;;;4.55;3.67;;;10.50;99.90;;;;;;5032979;28;20077;-66
2022/03/14 06:42:09;;;;;;;4.40;3.63;;;10.50;99.90;;;;;;5048767;28;20588;-66
2022/03/14 06:44:43;;;;;;;5.35;4.30;;;10.50;99.90;;;;;;5043034;28;20592;-67
2022/03/14 06:47:11;;;;;;;5.30;4.60;;;10.50;99.90;;;;;;5031341;28;20041;-66
2022/03/14 06:49:37;;;;;;;6.35;4.70;;;10.50;99.90;;;;;;5043840;28;20087;-66
2022/03/14 06:52:06;;;;;;;5.38;4.35;;;10.50;99.90;;;;;;5039025;28;20117;-66
2022/03/14 06:54:32;;;;;;;5.20;4.35;;;10.50;99.90;;;;;;5034748;28;20052;-66
2022/03/14 06:56:58;;;;;;;8.20;5.45;;;10.50;99.90;;;;;;5048086;28;20048;-66
2022/03/14 06:59:23;;;;;;;6.22;5.57;;;10.50;99.90;;;;;;5028990;28;20091;-67
2022/03/14 07:01:49;;;;;;;6.97;5.47;;;10.50;99.90;;;;;;5044157;28;20128;-66
2022/03/14 07:04:14;;;;;;;5.45;4.88;;;10.40;99.90;;;;;;5039548;28;20049;-66
2022/03/14 07:06:40;;;;;;;6.47;5.88;;;10.50;99.90;;;;;;5037927;28;20073;-66
2022/03/14 07:09:07;;;;;;;6.72;5.82;;;10.40;99.90;;;;;;5039030;28;20052;-66
2022/03/14 07:11:33;;;;;;;7.47;5.97;;;10.30;99.90;;;;;;5039751;28;20409;-66
2022/03/14 07:13:59;;;;;;;6.80;6.13;;;10.40;99.90;;;;;;5034426;28;20037;-67
2022/03/14 07:16:24;;;;;;;8.13;6.10;;;10.30;99.90;;;;;;5048874;28;20063;-66
2022/03/14 07:18:50;;;;;;;7.68;6.88;;;10.40;99.90;;;;;;5041047;28;20033;-66
2022/03/14 07:21:17;;;;;;;10.98;7.68;;;10.30;99.90;;;;;;5034515;28;20508;-66
2022/03/14 07:23:43;;;;;;;7.13;6.43;;;10.30;99.90;;;;;;5031484;28;20033;-67
2022/03/14 07:26:08;;;;;;;8.38;7.22;;;10.30;99.90;;;;;;5043947;28;20064;-66
2022/03/14 07:28:34;;;;;;;7.18;6.47;;;10.30;99.90;;;;;;5036454;28;20041;-67
2022/03/14 07:31:00;;;;;;;7.35;5.90;;;10.30;99.90;;;;;;5030035;28;20053;-66
2022/03/14 07:33:25;;;;;;;10.73;8.18;;;10.30;99.90;;;;;;5029918;28;20049;-66
2022/03/14 07:35:51;;;;;;;8.38;7.22;;;10.40;99.90;;;;;;5029876;28;20045;-67
2022/03/14 07:38:17;;;;;;;8.57;7.50;;;10.30;99.90;;;;;;5034162;28;20064;-67
2022/03/14 07:40:42;;;;;;;8.05;7.18;;;10.30;99.90;;;;;;5028172;28;20139;-67
2022/03/14 07:43:08;;;;;;;9.65;7.55;;;10.30;99.90;;;;;;5034015;28;20041;-66
2022/03/14 07:45:34;;;;;;;8.30;7.20;;;10.30;99.90;;;;;;5029208;28;20037;-66
2022/03/14 07:48:00;;;;;;;8.45;7.22;;;10.30;99.90;;;;;;5028410;28;20127;-66
2022/03/14 07:50:27;;;;;;;11.43;7.10;;;10.30;99.90;;;;;;5031893;28;20417;-67
2022/03/14 07:52:54;;;;;;;17.45;9.00;;;10.40;99.90;;;;;;5010309;28;1006803;-67
2022/03/14 07:55:20;;;;;;;12.57;7.72;;;10.30;99.90;;;;;;5032918;28;20572;-67
2022/03/14 07:57:46;;;;;;;8.77;7.13;;;10.30;99.90;;;;;;5031117;28;20116;-66
2022/03/14 08:00:18;;;;;;;8.35;7.32;;;10.30;99.90;;;;;;5046133;28;20560;-66
2022/03/14 08:02:45;;;;;;;9.32;7.90;;;10.30;99.90;;;;;;5047334;28;20037;-66
2022/03/14 08:05:16;;;;;;;9.23;7.32;;;10.30;99.90;;;;;;5048565;28;20080;-67
2022/03/14 08:07:45;;;;;;;12.43;8.60;;;10.30;99.90;;;;;;5047143;28;20144;-66
2022/03/14 08:10:11;;;;;;;11.27;8.30;;;10.30;99.90;;;;;;5046182;28;20587;-66
2022/03/14 08:12:52;;;;;;;14.02;9.50;;;10.30;99.90;;;;;;5046223;28;20477;-66
2022/03/14 08:15:22;;;;;;;10.73;8.10;;;10.30;99.90;;;;;;5039779;28;20120;-67
2022/03/14 08:17:47;;;;;;;9.43;8.38;;;10.30;99.90;;;;;;5033698;28;20397;-67
2022/03/14 08:20:13;;;;;;;10.35;9.25;;;10.30;99.90;;;;;;5029118;28;20048;-67
2022/03/14 08:22:39;;;;;;;10.95;9.45;;;10.20;99.90;;;;;;5034537;28;20477;-66
2022/03/14 08:25:05;;;;;;;11.27;10.10;;;10.30;99.90;;;;;;5035194;28;20667;-66
2022/03/14 08:27:31;;;;;;;15.00;12.32;;;10.30;99.90;;;;;;5030730;28;20093;-66
2022/03/14 08:29:56;;;;;;;15.40;11.63;;;10.30;99.90;;;;;;5032012;28;20050;-66
2022/03/14 08:32:23;;;;;;;20.13;14.68;;;10.30;99.90;;;;;;5029108;28;20052;-66
2022/03/14 08:34:51;;;;;;;27.65;20.17;;;10.30;99.90;;;;;;5029648;28;20440;-67
2022/03/14 08:37:16;;;;;;;28.90;21.23;;;10.30;99.90;;;;;;5032790;28;20033;-67
2022/03/14 08:39:42;;;;;;;30.67;22.98;;;10.30;99.90;;;;;;5046450;28;20049;-67
2022/03/14 08:42:09;;;;;;;34.47;24.17;;;10.20;99.90;;;;;;5048928;28;20106;-67
2022/03/14 08:44:34;;;;;;;36.53;24.55;;;10.20;99.90;;;;;;5046623;28;20041;-67
2022/03/14 08:47:00;;;;;;;41.88;27.23;;;10.20;99.90;;;;;;5035148;28;20095;-66
2022/03/14 08:49:25;;;;;;;41.78;27.45;;;10.10;99.90;;;;;;5044740;28;20052;-65
2022/03/14 08:51:51;;;;;;;40.75;26.67;;;10.10;99.90;;;;;;5029988;28;20064;-65
2022/03/14 08:54:16;;;;;;;43.95;26.25;;;10.10;99.90;;;;;;5036024;28;20045;-66
2022/03/14 08:56:42;;;;;;;41.28;25.70;;;10.10;99.90;;;;;;5041302;28;20667;-66
2022/03/14 08:59:10;;;;;;;46.90;28.20;;;10.00;99.90;;;;;;5048250;28;20131;-66
2022/03/14 09:01:35;;;;;;;42.55;27.30;;;10.00;99.90;;;;;;5038695;28;20045;-65
2022/03/14 09:04:01;;;;;;;52.85;29.80;;;10.00;99.90;;;;;;5035982;28;20047;-65
2022/03/14 09:06:28;;;;;;;45.75;27.90;;;10.00;99.90;;;;;;5029496;28;20120;-65
2022/03/14 09:08:54;;;;;;;44.95;28.58;;;10.00;99.90;;;;;;5039597;28;20053;-65
2022/03/14 09:11:19;;;;;;;37.92;24.08;;;10.00;99.90;;;;;;5028443;28;20052;-65
2022/03/14 09:13:45;;;;;;;41.15;23.30;;;10.00;99.90;;;;;;5032608;28;20473;-66
2022/03/14 09:16:10;;;;;;;35.58;21.95;;;10.00;99.90;;;;;;5037163;28;20045;-66
2022/03/14 09:18:36;;;;;;;36.58;20.52;;;10.00;99.90;;;;;;5042238;28;20040;-66
2022/03/14 09:21:01;;;;;;;37.60;19.02;;;10.00;99.90;;;;;;5033391;28;20550;-66
2022/03/14 09:23:27;;;;;;;33.58;20.13;;;10.00;99.90;;;;;;5037292;28;20075;-66
2022/03/14 09:25:55;;;;;;;36.70;20.20;;;10.10;99.90;;;;;;5046818;28;20091;-66
2022/03/14 09:28:21;;;;;;;30.75;18.60;;;10.10;99.90;;;;;;5032563;28;20119;-66
2022/03/14 09:30:47;;;;;;;35.20;19.38;;;10.10;99.90;;;;;;5036974;28;20670;-66
2022/03/14 09:33:12;;;;;;;33.28;19.33;;;10.20;99.90;;;;;;5036061;28;20124;-66
2022/03/14 09:35:38;;;;;;;30.23;16.05;;;10.20;99.90;;;;;;5039427;28;20171;-66
2022/03/14 09:38:04;;;;;;;27.67;17.00;;;10.30;99.90;;;;;;5034341;28;20056;-66
2022/03/14 09:40:31;;;;;;;27.13;14.93;;;10.40;99.90;;;;;;5027738;28;20041;-66
2022/03/14 09:42:59;;;;;;;26.95;13.35;;;10.50;99.90;;;;;;5033716;28;20046;-66
2022/03/14 09:45:26;;;;;;;24.63;11.10;;;10.50;99.90;;;;;;5033227;28;20574;-66
2022/03/14 09:47:57;;;;;;;16.33;9.98;;;10.60;99.90;;;;;;5036291;28;20033;-66
2022/03/14 09:50:38;;;;;;;19.23;8.60;;;10.60;99.90;;;;;;5047908;28;20041;-66
2022/03/14 09:53:11;;;;;;;23.40;8.82;;;10.70;99.90;;;;;;5047620;28;20571;-66
2022/03/14 09:55:43;;;;;;;19.80;7.72;;;10.70;99.90;;;;;;5037138;28;20076;-66
2022/03/14 09:58:15;;;;;;;13.70;5.95;;;10.70;99.90;;;;;;5031083;28;20050;-66
2022/03/14 10:00:42;;;;;;;12.88;6.97;;;10.70;99.90;;;;;;5028116;28;20045;-66
2022/03/14 10:03:08;;;;;;;17.17;6.82;;;10.80;99.90;;;;;;5029141;28;20045;-66
2022/03/14 10:05:34;;;;;;;18.98;6.70;;;10.80;99.90;;;;;;5048884;28;20037;-66
2022/03/14 10:08:00;;;;;;;14.07;5.95;;;10.90;99.90;;;;;;5047235;28;20046;-66
2022/03/14 10:10:26;;;;;;;12.85;5.97;;;10.80;99.90;;;;;;5030657;28;20045;-66
2022/03/14 10:12:57;;;;;;;19.55;6.97;;;10.90;99.90;;;;;;5043009;28;20048;-66
2022/03/14 10:15:25;;;;;;;12.63;6.40;;;10.80;99.90;;;;;;5034105;28;20049;-66
2022/03/14 10:17:52;;;;;;;24.45;6.82;;;10.80;99.90;;;;;;5044318;28;20029;-66
2022/03/14 10:20:18;;;;;;;20.70;6.97;;;10.80;99.90;;;;;;5047971;28;20184;-66
2022/03/14 10:22:45;;;;;;;20.35;6.97;;;10.80;99.90;;;;;;5046251;28;20484;-66
2022/03/14 10:25:13;;;;;;;16.10;6.50;;;10.80;99.90;;;;;;5033779;28;20088;-66
2022/03/14 10:27:55;;;;;;;17.17;6.22;;;10.70;99.90;;;;;;5032239;28;20052;-66
2022/03/14 10:30:29;;;;;;;14.20;6.10;;;10.70;99.90;;;;;;5028067;28;20527;-66
2022/03/14 10:33:17;;;;;;;16.05;6.22;;;10.70;99.90;;;;;;5028161;28;20049;-66
2022/03/14 10:35:44;;;;;;;13.32;7.07;;;10.80;99.90;;;;;;5027704;28;20049;-65
2022/03/14 10:38:12;;;;;;;15.10;7.15;;;10.70;99.90;;;;;;5032419;28;20984;-65
2022/03/14 10:40:44;;;;;;;17.85;6.70;;;10.70;99.90;;;;;;5027693;28;20053;-66
2022/03/14 10:43:35;;;;;;;17.52;7.93;;;10.80;99.90;;;;;;5027203;28;20052;-65
2022/03/14 10:46:04;;;;;;;19.80;8.27;;;10.80;99.90;;;;;;5031863;28;20640;-65
2022/03/14 10:48:34;;;;;;;18.55;7.40;;;10.90;99.90;;;;;;5038868;28;20060;-65
2022/03/14 10:51:06;;;;;;;17.00;7.22;;;10.90;99.90;;;;;;5037887;28;20056;-65
2022/03/14 10:53:34;;;;;;;25.52;9.93;;;10.90;99.90;;;;;;5032760;28;20437;-65
2022/03/14 10:56:01;;;;;;;17.60;8.20;;;10.90;99.90;;;;;;5030952;28;20049;-65
2022/03/14 10:58:33;;;;;;;18.73;9.38;;;10.90;99.90;;;;;;5032124;28;20041;-65
2022/03/14 11:01:04;;;;;;;24.60;9.75;;;10.90;99.90;;;;;;5049736;28;20373;-65
2022/03/14 11:03:32;;;;;;;23.38;10.35;;;10.90;99.90;;;;;;5045110;28;20041;-65
2022/03/14 11:06:02;;;;;;;22.20;10.10;;;10.80;99.90;;;;;;5037860;28;20081;-65
2022/03/14 11:08:36;;;;;;;21.67;10.38;;;10.90;99.90;;;;;;5033924;28;20133;-65
2022/03/14 11:11:14;;;;;;;33.63;12.50;;;10.90;99.90;;;;;;5039435;28;20056;-64
2022/03/14 11:13:44;;;;;;;30.17;12.85;;;10.90;99.90;;;;;;5046317;28;20103;-65
2022/03/14 11:16:21;;;;;;;26.48;13.38;;;10.80;99.90;;;;;;5045579;28;20049;-64
2022/03/14 11:18:47;;;;;;;29.63;12.73;;;10.80;99.90;;;;;;5040621;28;20049;-66
2022/03/14 11:21:15;;;;;;;24.38;11.93;;;10.80;99.90;;;;;;5030350;28;20467;-66
2022/03/14 11:23:43;;;;;;;30.25;13.48;;;10.90;99.90;;;;;;5031423;28;20076;-66
2022/03/14 11:26:10;;;;;;;23.92;13.60;;;11.00;99.90;;;;;;5029583;28;20049;-66
2022/03/14 11:28:39;;;;;;;30.38;15.32;;;11.00;99.90;;;;;;5031677;28;20124;-66
2022/03/14 11:31:05;;;;;;;29.98;14.60;;;11.00;99.90;;;;;;5034741;28;20049;-65
2022/03/14 11:33:35;;;;;;;31.63;13.23;;;11.00;99.90;;;;;;5029415;28;20038;-65
2022/03/14 11:36:01;;;;;;;26.08;12.18;;;11.00;99.90;;;;;;5030582;28;20045;-67
2022/03/14 11:38:29;;;;;;;23.58;11.80;;;11.10;99.90;;;;;;5033665;28;20123;-66
2022/03/14 11:40:55;;;;;;;25.33;12.73;;;11.00;99.90;;;;;;5033542;28;20085;-66
2022/03/14 11:43:21;;;;;;;25.08;11.70;;;11.00;99.90;;;;;;5030017;28;20038;-66
2022/03/14 11:45:47;;;;;;;27.10;12.13;;;11.00;99.90;;;;;;5030886;28;20052;-66
2022/03/14 11:48:14;;;;;;;25.33;12.65;;;11.10;99.90;;;;;;5028709;28;20048;-66
2022/03/14 11:50:59;;;;;;;25.67;10.98;;;11.20;99.90;;;;;;5034232;28;20040;-66
2022/03/14 11:53:30;;;;;;;28.02;12.38;;;11.30;99.90;;;;;;5045142;28;20107;-66
2022/03/14 11:56:00;;;;;;;33.63;10.60;;;11.30;99.90;;;;;;5049519;28;20141;-66
2022/03/14 11:58:36;;;;;;;25.40;10.30;;;11.30;99.90;;;;;;5036811;28;20388;-66
2022/03/14 12:01:28;;;;;;;30.05;10.23;;;11.30;99.90;;;;;;5049529;28;20049;-66
2022/03/14 12:03:59;;;;;;;26.52;9.88;;;11.30;99.90;;;;;;5047335;28;20049;-66
2022/03/14 12:06:46;;;;;;;24.67;9.02;;;11.40;99.90;;;;;;5049711;28;20041;-66
2022/03/14 12:09:23;;;;;;;23.30;8.95;;;11.40;99.90;;;;;;5030248;28;20045;-66
2022/03/14 12:11:49;;;;;;;19.77;9.13;;;11.30;99.90;;;;;;5028848;28;20132;-66
2022/03/14 12:14:44;;;;;;;22.77;10.48;;;11.40;99.90;;;;;;5029267;28;20056;-66
2022/03/14 12:17:12;;;;;;;22.63;10.30;;;11.50;99.90;;;;;;5031894;28;20066;-66
2022/03/14 12:19:42;;;;;;;28.67;10.35;;;11.50;99.90;;;;;;5050178;28;20126;-66
2022/03/14 12:22:13;;;;;;;24.77;9.63;;;11.50;99.90;;;;;;5043810;28;20042;-66
2022/03/14 12:24:38;;;;;;;21.45;8.52;;;11.70;99.90;;;;;;5045959;28;20041;-67
2022/03/14 12:27:31;;;;;;;20.30;10.23;;;11.80;99.90;;;;;;5045511;28;20048;-66
2022/03/14 12:29:58;;;;;;;19.85;7.63;;;11.80;99.90;;;;;;5030296;28;20052;-66
2022/03/14 12:32:28;;;;;;;17.75;7.18;;;11.90;99.90;;;;;;5028138;28;20409;-66
2022/03/14 12:35:27;;;;;;;21.95;7.57;;;11.90;99.90;;;;;;5029860;28;20042;-66
2022/03/14 12:38:11;;;;;;;14.30;7.28;;;11.90;99.90;;;;;;5030388;28;20057;-66
2022/03/14 12:40:36;;;;;;;17.92;8.40;;;12.00;99.90;;;;;;5029521;28;20056;-66